Time;durP1;ratioP1;P1;durP2;ratioP2;P2;SDS_P1;SDS_P2;PMS_P1;PMS_P2;Temp;Humidity;BMP_temperature;BMP_pressure;BME280_temperature;BME280_humidity;BME280_pressure;Samples;Min_cycle;Max_cycle;Signal;HPM_P1;HPM_P2
2022/06/11 00:00:28;;;;;;;7.10;1.67;;;;;;;13.63;83.95;101309.06;4955947;29;20054;-75
2022/06/11 00:03:31;;;;;;;10.85;2.55;;;;;;;13.65;83.73;101320.31;4955968;29;20050;-75
2022/06/11 00:06:38;;;;;;;11.05;1.95;;;;;;;13.60;83.91;101318.91;4955840;29;20098;-75
2022/06/11 00:09:42;;;;;;;6.88;2.28;;;;;;;13.54;84.27;101317.44;4955826;29;20050;-75
2022/06/11 00:12:45;;;;;;;10.65;2.08;;;;;;;13.52;83.99;101324.53;4955590;29;20086;-75
2022/06/11 00:15:51;;;;;;;10.80;2.03;;;;;;;13.47;84.28;101321.31;4955700;29;20046;-75
2022/06/11 00:18:56;;;;;;;6.60;1.67;;;;;;;13.52;84.25;101318.44;4955638;29;20461;-75
2022/06/11 00:22:02;;;;;;;5.00;1.60;;;;;;;13.58;84.04;101318.97;4955516;29;20099;-75
2022/06/11 00:25:06;;;;;;;5.40;2.10;;;;;;;13.70;83.99;101317.47;4954488;28;20054;-75
2022/06/11 00:28:09;;;;;;;5.93;1.83;;;;;;;13.70;83.78;101323.56;4955386;29;20464;-75
2022/06/11 00:31:13;;;;;;;5.57;1.85;;;;;;;13.66;84.08;101316.78;4955375;29;20067;-75
2022/06/11 00:34:17;;;;;;;5.15;1.75;;;;;;;13.64;84.20;101318.63;4955521;28;20633;-76
2022/06/11 00:37:20;;;;;;;4.15;1.83;;;;;;;13.67;84.07;101315.00;4955352;29;20074;-75
2022/06/11 00:40:27;;;;;;;6.53;1.92;;;;;;;13.64;84.04;101317.78;4953134;29;20117;-75
2022/06/11 00:43:31;;;;;;;8.70;2.95;;;;;;;13.48;84.58;101320.38;4954300;29;20497;-74
2022/06/11 00:46:43;;;;;;;5.63;1.70;;;;;;;13.44;84.46;101316.22;4954502;29;20130;-74
2022/06/11 00:49:51;;;;;;;5.82;1.70;;;;;;;13.60;84.15;101321.53;4954580;29;20105;-74
2022/06/11 00:52:58;;;;;;;4.78;1.52;;;;;;;13.79;83.22;101314.38;4954920;29;20062;-75
2022/06/11 00:56:05;;;;;;;5.05;1.80;;;;;;;13.85;82.86;101311.41;4954924;29;20053;-75
2022/06/11 00:59:13;;;;;;;5.55;2.22;;;;;;;13.61;83.84;101305.66;4954930;29;20062;-75
2022/06/11 01:02:17;;;;;;;8.55;2.78;;;;;;;13.56;84.04;101305.06;4954641;29;20042;-75
2022/06/11 01:05:28;;;;;;;6.78;2.75;;;;;;;13.49;84.28;101309.75;4954729;29;20057;-74
2022/06/11 01:08:43;;;;;;;8.85;2.80;;;;;;;13.43;84.84;101307.47;4954865;29;20050;-74
2022/06/11 01:12:13;;;;;;;13.98;3.67;;;;;;;13.39;85.35;101307.69;4954080;29;20045;-74
2022/06/11 01:15:24;;;;;;;10.40;3.47;;;;;;;13.42;85.31;101308.41;4954608;29;20098;-74
2022/06/11 01:19:04;;;;;;;12.05;3.97;;;;;;;13.31;86.07;101317.78;4954916;29;20045;-74
2022/06/11 01:22:39;;;;;;;8.10;3.35;;;;;;;13.44;85.57;101308.31;4954426;29;20109;-75
2022/06/11 01:26:07;;;;;;;8.73;3.28;;;;;;;13.39;85.98;101311.19;4954332;29;20069;-74
2022/06/11 01:29:10;;;;;;;11.63;3.85;;;;;;;13.40;85.90;101315.53;4954338;29;20524;-74
2022/06/11 01:32:34;;;;;;;13.52;3.83;;;;;;;13.55;85.45;101310.38;4954268;28;20498;-74
2022/06/11 01:35:59;;;;;;;8.00;3.38;;;;;;;13.58;85.20;101318.97;4954024;28;20053;-74
2022/06/11 01:39:34;;;;;;;8.40;3.05;;;;;;;13.47;85.11;101310.81;4962505;28;20143;-74
2022/06/11 01:42:55;;;;;;;5.63;3.10;;;;;;;13.37;85.77;101309.56;4973331;28;20049;-74
2022/06/11 01:46:01;;;;;;;7.43;3.58;;;;;;;13.22;86.35;101317.25;4973333;28;20054;-75
2022/06/11 01:49:27;;;;;;;7.93;3.60;;;;;;;13.17;86.70;101314.00;4973374;28;20050;-75
2022/06/11 01:52:55;;;;;;;9.00;3.05;;;;;;;13.32;86.30;101309.81;4973678;28;20046;-75
2022/06/11 01:56:32;;;;;;;7.45;3.38;;;;;;;13.69;84.11;101310.53;4973290;28;20572;-75
2022/06/11 01:59:47;;;;;;;5.70;2.35;;;;;;;13.78;83.02;101309.16;4973242;28;20074;-75
2022/06/11 02:03:28;;;;;;;7.63;2.75;;;;;;;13.78;82.96;101307.38;4973119;28;20041;-75
2022/06/11 02:07:10;;;;;;;8.05;2.80;;;;;;;13.67;82.89;101302.72;4973102;28;20057;-75
2022/06/11 02:10:22;;;;;;;6.82;2.97;;;;;;;13.24;84.38;101309.28;4963227;28;20078;-74
2022/06/11 02:13:29;;;;;;;4.50;2.40;;;;;;;13.23;84.67;101305.81;4972950;28;20413;-74
2022/06/11 02:16:57;;;;;;;8.80;3.75;;;;;;;13.07;85.64;101312.78;4983475;28;20081;-74
2022/06/11 02:20:19;;;;;;;4.80;2.10;;;;;;;13.09;85.30;101304.84;4973095;28;20050;-74
2022/06/11 02:23:35;;;;;;;5.07;2.28;;;;;;;13.10;85.33;101307.38;4967404;28;20093;-75
2022/06/11 02:26:44;;;;;;;7.75;2.97;;;;;;;13.11;85.48;101311.69;4964222;28;20050;-75
2022/06/11 02:29:48;;;;;;;8.30;3.55;;;;;;;13.04;85.78;101313.78;4946893;28;20046;-75
2022/06/11 02:32:52;;;;;;;8.52;2.42;;;;;;;12.91;85.58;101312.69;4953448;28;20472;-75
2022/06/11 02:36:14;;;;;;;5.93;2.90;;;;;;;12.91;86.47;101317.94;4952539;28;20046;-75
2022/06/11 02:39:17;;;;;;;6.30;3.80;;;;;;;12.93;86.88;101310.00;4963637;28;20109;-74
2022/06/11 02:42:23;;;;;;;8.82;3.22;;;;;;;12.99;86.95;101312.34;4972675;28;20069;-74
2022/06/11 02:45:26;;;;;;;7.32;2.97;;;;;;;13.05;86.65;101325.16;4972875;28;20050;-74
2022/06/11 02:48:29;;;;;;;6.03;3.70;;;;;;;12.87;87.45;101315.56;4974719;28;20460;-74
2022/06/11 02:51:32;;;;;;;9.93;3.65;;;;;;;12.90;87.55;101320.66;4976397;28;20085;-74
2022/06/11 02:54:36;;;;;;;8.45;3.33;;;;;;;12.87;87.82;101315.56;4976694;28;20081;-74
2022/06/11 02:57:40;;;;;;;6.13;3.85;;;;;;;12.90;87.79;101320.66;4976529;28;20048;-74
2022/06/11 03:00:46;;;;;;;11.95;4.13;;;;;;;12.79;88.01;101324.66;4976581;28;20058;-75
2022/06/11 03:03:51;;;;;;;6.90;3.92;;;;;;;12.79;88.10;101327.28;4975591;28;20420;-75
2022/06/11 03:06:54;;;;;;;4.65;3.10;;;;;;;12.77;87.81;101323.88;4976205;28;20050;-75
2022/06/11 03:09:57;;;;;;;7.22;2.83;;;;;;;13.03;86.37;101332.25;4976013;28;20073;-75
2022/06/11 03:13:02;;;;;;;10.85;3.25;;;;;;;12.06;90.80;101343.84;4976065;28;20046;-75
2022/06/11 03:16:06;;;;;;;4.55;3.08;;;;;;;12.39;89.44;101330.97;4975638;28;20093;-76
2022/06/11 03:19:10;;;;;;;10.70;2.92;;;;;;;12.65;88.04;101334.13;4975812;28;20041;-76
2022/06/11 03:22:13;;;;;;;3.80;2.15;;;;;;;12.98;86.32;101339.50;4975547;28;20250;-75
2022/06/11 03:25:19;;;;;;;5.65;2.95;;;;;;;13.04;86.31;101344.44;4975780;28;20058;-75
2022/06/11 03:28:25;;;;;;;5.03;3.00;;;;;;;12.95;87.19;101348.34;4618997;28;9999925;-76
2022/06/11 03:31:28;;;;;;;4.05;2.95;;;;;;;13.04;86.34;101349.69;4952174;29;20082;-75
2022/06/11 03:34:31;;;;;;;6.85;2.33;;;;;;;13.01;85.83;101349.84;4952960;29;20518;-76
2022/06/11 03:37:35;;;;;;;5.70;2.63;;;;;;;13.14;84.99;101350.94;4953049;29;20444;-76
2022/06/11 03:40:40;;;;;;;7.07;2.80;;;;;;;12.99;85.72;101349.09;4933122;29;20110;-76
2022/06/11 03:43:43;;;;;;;11.25;3.10;;;;;;;12.76;86.58;101350.19;4933430;29;20059;-76
2022/06/11 03:46:46;;;;;;;5.38;3.03;;;;;;;13.00;85.64;101348.16;4932267;29;20143;-75
2022/06/11 03:49:50;;;;;;;6.43;2.45;;;;;;;13.07;85.24;101348.69;4933836;29;20046;-75
2022/06/11 03:52:55;;;;;;;4.97;3.30;;;;;;;12.91;85.54;101359.94;4933276;29;20089;-75
2022/06/11 03:55:59;;;;;;;6.07;2.72;;;;;;;13.10;85.13;101353.78;4933284;29;20054;-75
2022/06/11 03:59:02;;;;;;;;;;;;;;;12.75;85.33;101357.22;4933839;29;20110;-75
2022/06/11 04:02:05;;;;;;;3.60;1.95;;;;;;;12.64;86.72;101354.25;4933491;29;20364;-75
2022/06/11 04:05:09;;;;;;;4.40;2.13;;;;;;;12.86;85.49;101359.34;4932892;29;20059;-75
2022/06/11 04:08:13;;;;;;;3.97;2.03;;;;;;;12.96;85.88;101362.34;4933346;29;20086;-75
2022/06/11 04:11:17;;;;;;;7.30;2.83;;;;;;;12.94;85.75;101364.19;4933193;29;20055;-75
2022/06/11 04:14:21;;;;;;;5.75;2.50;;;;;;;12.92;85.89;101360.78;4933428;29;20185;-75
2022/06/11 04:17:28;;;;;;;5.90;2.58;;;;;;;13.08;84.84;101363.50;4932720;29;20058;-76
2022/06/11 04:20:32;;;;;;;5.55;2.50;;;;;;;13.23;83.53;101371.47;4933094;29;20467;-76
2022/06/11 04:23:38;;;;;;;4.78;2.28;;;;;;;12.92;84.47;101366.91;4932750;29;20406;-75
2022/06/11 04:26:46;;;;;;;3.83;2.28;;;;;;;12.98;84.45;101365.75;4932716;29;20084;-75
2022/06/11 04:29:53;;;;;;;5.90;2.90;;;;;;;13.09;83.70;101368.69;4923749;29;20058;-75
2022/06/11 04:32:56;;;;;;;4.50;2.20;;;;;;;13.20;83.69;101363.75;4913533;29;20051;-75
2022/06/11 04:36:00;;;;;;;5.22;2.30;;;;;;;12.93;85.14;101362.50;4914492;29;20059;-75
2022/06/11 04:39:06;;;;;;;4.05;2.47;;;;;;;13.00;84.99;101364.75;4600517;29;10000713;-75
2022/06/11 04:42:12;;;;;;;5.60;2.17;;;;;;;12.91;86.07;101356.47;4951568;29;20057;-75
2022/06/11 04:45:16;;;;;;;4.68;2.65;;;;;;;12.90;86.22;101358.25;4950734;28;20054;-74
2022/06/11 04:48:20;;;;;;;4.20;2.33;;;;;;;13.19;84.38;101363.84;4955076;29;20473;-73
2022/06/11 04:51:23;;;;;;;2.83;1.80;;;;;;;13.41;82.94;101363.66;4965492;28;20089;-75
2022/06/11 04:54:27;;;;;;;3.60;2.20;;;;;;;13.20;83.92;101366.38;4966917;28;20101;-75
2022/06/11 04:57:31;;;;;;;4.50;1.80;;;;;;;13.42;83.14;101365.34;4974333;28;20113;-74
2022/06/11 05:00:35;;;;;;;3.55;2.00;;;;;;;13.32;84.01;101364.13;4974289;28;20049;-74
2022/06/11 05:03:39;;;;;;;2.50;1.63;;;;;;;13.18;84.56;101368.25;4974049;28;20126;-74
2022/06/11 05:06:45;;;;;;;2.83;1.63;;;;;;;13.25;84.06;101369.66;4974043;28;20096;-74
2022/06/11 05:09:49;;;;;;;3.03;1.60;;;;;;;13.21;84.40;101368.09;4974178;28;20081;-73
2022/06/11 05:12:54;;;;;;;2.78;1.48;;;;;;;13.25;85.19;101369.66;4984307;28;20579;-73
2022/06/11 05:15:58;;;;;;;2.80;1.35;;;;;;;13.51;84.13;101364.88;4973788;28;20523;-74
2022/06/11 05:19:02;;;;;;;3.53;1.85;;;;;;;13.75;82.66;101367.16;4972543;28;20072;-74
2022/06/11 05:22:06;;;;;;;3.17;1.80;;;;;;;13.77;82.56;101365.31;4935251;29;20429;-74
2022/06/11 05:25:10;;;;;;;2.60;1.20;;;;;;;13.84;82.04;101367.53;4945461;29;20042;-74
2022/06/11 05:28:21;;;;;;;3.08;1.38;;;;;;;13.78;82.24;101367.84;4954463;29;20042;-74
2022/06/11 05:31:25;;;;;;;3.53;2.03;;;;;;;13.82;83.06;101368.56;4951307;29;20045;-74
2022/06/11 05:34:30;;;;;;;3.22;1.60;;;;;;;13.75;83.26;101377.66;4954395;28;20119;-74
2022/06/11 05:37:34;;;;;;;3.88;1.40;;;;;;;13.71;83.69;101379.63;4973731;28;20054;-74
2022/06/11 05:40:41;;;;;;;2.85;1.50;;;;;;;13.65;84.22;101382.56;4961422;28;20061;-75
2022/06/11 05:43:45;;;;;;;2.40;1.50;;;;;;;13.64;83.99;101381.72;4954301;29;20045;-75
2022/06/11 05:46:49;;;;;;;2.75;1.63;;;;;;;13.75;83.55;101383.78;4954348;29;20105;-75
2022/06/11 05:49:58;;;;;;;3.58;1.70;;;;;;;13.83;84.12;101380.75;4953939;28;20073;-74
2022/06/11 05:53:03;;;;;;;2.53;1.73;;;;;;;13.97;83.61;101383.50;4952200;28;20086;-74
2022/06/11 05:56:10;;;;;;;3.75;1.75;;;;;;;13.94;83.59;101383.66;4954054;29;20106;-75
2022/06/11 06:00:06;;;;;;;2.53;1.67;;;;;;;13.86;84.30;101380.59;4953924;29;20046;-75
2022/06/11 06:03:55;;;;;;;6.38;1.67;;;;;;;13.71;85.00;101383.09;4948720;28;20464;-75
2022/06/11 06:06:58;;;;;;;;;;;;;;;13.90;84.64;101392.66;4954574;29;20054;-74
2022/06/11 06:10:01;;;;;;;2.53;1.48;;;;;;;13.96;83.87;101387.06;4934785;29;19981;-74
2022/06/11 06:13:45;;;;;;;5.82;1.50;;;;;;;14.08;84.17;101390.84;4944393;29;20420;-74
2022/06/11 06:16:31;;;;;;;;;;;;;;;14.34;83.48;101378.91;4954337;29;20050;-74
2022/06/11 06:19:34;;;;;;;2.42;1.40;;;;;;;14.26;83.61;101386.34;4953717;29;19937;-74
2022/06/11 06:22:38;;;;;;;5.18;1.50;;;;;;;14.41;83.04;101393.44;4973360;28;20474;-74
2022/06/11 06:25:41;;;;;;;3.22;1.73;;;;;;;14.44;82.62;101385.38;4963253;28;20196;-75
2022/06/11 06:28:44;;;;;;;2.92;1.52;;;;;;;14.51;82.16;101384.13;4977135;28;20421;-74
2022/06/11 06:31:47;;;;;;;5.20;1.65;;;;;;;14.54;81.94;101386.59;4957695;28;20513;-74
2022/06/11 06:34:51;;;;;;;3.08;1.50;;;;;;;14.65;82.08;101389.50;4948956;28;20116;-74
2022/06/11 06:37:54;;;;;;;6.35;2.53;;;;;;;14.64;82.35;101381.66;4956483;29;20176;-74
2022/06/11 06:40:58;;;;;;;4.13;1.33;;;;;;;14.75;82.36;101388.97;4938367;29;20055;-75
2022/06/11 06:44:02;;;;;;;3.45;1.70;;;;;;;14.90;81.71;101385.50;4938352;29;20082;-77
2022/06/11 06:47:06;;;;;;;4.45;1.50;;;;;;;15.18;80.87;101395.28;4938274;29;20051;-76
2022/06/11 06:50:10;;;;;;;4.47;1.42;;;;;;;15.28;80.41;101390.31;4938538;29;20058;-77
2022/06/11 06:53:13;;;;;;;3.60;1.35;;;;;;;15.19;80.35;101386.44;4937410;29;20097;-74
2022/06/11 06:56:16;;;;;;;8.95;1.55;;;;;;;15.37;79.61;101389.78;4938208;29;20458;-75
2022/06/11 06:59:20;;;;;;;6.28;1.30;;;;;;;15.33;79.93;101393.53;4937842;29;20066;-76
2022/06/11 07:02:24;;;;;;;3.70;1.20;;;;;;;15.50;80.12;101385.47;4937921;29;20091;-76
2022/06/11 07:05:27;;;;;;;4.07;1.50;;;;;;;15.37;80.65;101389.78;4938032;29;20127;-75
2022/06/11 07:08:31;;;;;;;2.88;1.40;;;;;;;15.47;81.44;101390.09;4937879;29;20524;-74
2022/06/11 07:11:35;;;;;;;2.15;1.15;;;;;;;15.67;80.96;101383.69;4937637;29;20137;-74
2022/06/11 07:14:39;;;;;;;4.53;1.85;;;;;;;15.85;79.58;101379.91;4937591;29;20038;-75
2022/06/11 07:18:05;;;;;;;2.97;1.35;;;;;;;15.92;78.87;101381.25;4937518;29;20422;-76
2022/06/11 07:21:15;;;;;;;8.80;2.00;;;;;;;16.03;78.11;101384.06;4925731;29;20055;-74
2022/06/11 07:24:24;;;;;;;7.68;1.67;;;;;;;16.11;78.44;101383.59;4937205;29;20061;-69
2022/06/11 07:27:31;;;;;;;4.47;1.20;;;;;;;16.30;78.83;101385.94;4937560;29;20565;-69
2022/06/11 07:30:42;;;;;;;3.28;1.40;;;;;;;16.46;78.59;101377.91;4937413;29;20082;-68
2022/06/11 07:33:49;;;;;;;3.55;1.30;;;;;;;16.58;78.06;101376.28;4937055;29;20046;-69
2022/06/11 07:36:52;;;;;;;4.78;1.10;;;;;;;16.62;78.46;101380.41;4937230;29;20063;-73
2022/06/11 07:39:56;;;;;;;7.80;1.42;;;;;;;16.58;77.96;101371.00;4937244;29;20118;-70
2022/06/11 07:42:59;;;;;;;4.60;1.70;;;;;;;16.71;77.93;101363.97;4937249;29;20126;-75
2022/06/11 07:46:03;;;;;;;3.05;1.00;;;;;;;16.77;77.96;101373.34;4937007;29;20062;-75
2022/06/11 07:49:06;;;;;;;3.90;1.25;;;;;;;16.89;77.53;101378.69;4937078;29;20050;-74
2022/06/11 07:52:10;;;;;;;5.55;1.63;;;;;;;17.05;77.14;101373.22;4937262;29;20414;-74
2022/06/11 07:55:14;;;;;;;13.70;1.67;;;;;;;16.95;77.01;101373.00;4937123;29;20102;-74
2022/06/11 07:58:20;;;;;;;7.68;1.98;;;;;;;16.96;77.68;101365.91;4936914;29;20118;-75
2022/06/11 08:01:23;;;;;;;11.63;1.70;;;;;;;17.00;77.39;101369.19;4936929;29;20511;-75
2022/06/11 08:04:27;;;;;;;4.75;1.70;;;;;;;17.00;76.02;101361.25;4936945;29;20051;-77
2022/06/11 08:07:30;;;;;;;4.72;1.30;;;;;;;16.98;75.83;101371.09;4937028;29;20134;-78
2022/06/11 08:10:36;;;;;;;6.30;1.88;;;;;;;17.11;76.34;101372.00;4936731;29;20086;-77
2022/06/11 08:13:39;;;;;;;7.55;2.33;;;;;;;17.20;75.94;101366.94;4936636;29;20079;-75
2022/06/11 08:16:43;;;;;;;27.52;8.02;;;;;;;17.29;76.31;101369.91;4936643;29;20118;-73
2022/06/11 08:19:48;;;;;;;19.50;6.32;;;;;;;17.29;75.40;101362.81;4936748;29;20106;-75
2022/06/11 08:22:52;;;;;;;11.57;3.22;;;;;;;17.41;76.87;101363.78;4936509;29;20131;-76
2022/06/11 08:25:56;;;;;;;7.97;2.33;;;;;;;17.41;76.45;101363.78;4936441;29;20055;-76
2022/06/11 08:28:59;;;;;;;5.30;1.90;;;;;;;17.63;76.30;101357.88;4936456;29;20099;-77
2022/06/11 08:32:04;;;;;;;24.48;8.75;;;;;;;17.68;76.08;101366.38;4936269;29;20472;-77
2022/06/11 08:35:09;;;;;;;40.88;14.10;;;;;;;17.84;76.00;101367.03;4936346;29;20047;-76
2022/06/11 08:38:14;;;;;;;19.75;6.65;;;;;;;17.96;75.94;101369.75;4936014;29;20095;-74
2022/06/11 08:41:20;;;;;;;15.25;3.38;;;;;;;18.03;76.30;101363.09;4935944;29;20102;-70
2022/06/11 08:44:23;;;;;;;10.00;3.42;;;;;;;18.04;76.10;101362.97;4934866;29;20101;-74
2022/06/11 08:47:34;;;;;;;12.60;2.10;;;;;;;18.16;76.10;101363.91;4946281;29;20122;-74
2022/06/11 08:50:47;;;;;;;23.60;7.70;;;;;;;18.38;75.36;101360.59;4936190;29;20426;-74
2022/06/11 08:53:51;;;;;;;;;;;;;;;18.51;76.16;101356.09;4936606;29;20113;-74
2022/06/11 08:57:14;;;;;;;9.15;3.05;;;;;;;18.66;75.19;101351.47;4935894;29;20399;-74
2022/06/11 09:00:47;;;;;;;5.82;2.15;;;;;;;18.64;75.14;101349.91;4935929;29;20098;-74
2022/06/11 09:04:05;;;;;;;16.77;4.90;;;;;;;18.72;74.30;101348.41;4934004;29;20138;-74
2022/06/11 09:07:19;;;;;;;12.80;2.05;;;;;;;18.85;73.24;101336.91;4935929;29;20046;-74
2022/06/11 09:10:35;;;;;;;5.75;1.83;;;;;;;18.95;72.84;101338.78;4935889;29;20066;-74
2022/06/11 09:14:15;;;;;;;9.32;1.50;;;;;;;19.03;72.96;101335.53;4935588;29;20050;-74
2022/06/11 09:17:24;;;;;;;31.20;12.77;;;;;;;19.08;72.94;101332.53;4935709;29;20481;-74
2022/06/11 09:20:33;;;;;;;15.18;5.65;;;;;;;19.18;72.23;101334.38;4935566;29;20449;-74
2022/06/11 09:24:04;;;;;;;8.75;2.10;;;;;;;19.28;72.26;101332.72;4935344;29;20043;-74
2022/06/11 09:27:13;;;;;;;9.68;3.28;;;;;;;19.43;71.70;101324.53;4935458;29;20573;-74
2022/06/11 09:30:47;;;;;;;6.03;1.60;;;;;;;19.46;72.70;101324.31;4935475;29;20046;-74
2022/06/11 09:33:57;;;;;;;9.50;2.13;;;;;;;19.59;71.47;101329.50;4935203;29;20114;-74
2022/06/11 09:37:12;;;;;;;6.32;1.27;;;;;;;19.69;70.55;101323.41;4935255;29;20050;-74
2022/06/11 09:40:21;;;;;;;9.07;1.55;;;;;;;19.91;69.58;101329.69;4934862;29;20103;-75
2022/06/11 09:43:41;;;;;;;7.65;2.55;;;;;;;19.99;69.60;101324.63;4935113;29;20047;-74
2022/06/11 09:46:51;;;;;;;8.02;1.60;;;;;;;20.09;68.09;101330.88;4935070;29;20151;-74
2022/06/11 09:50:15;;;;;;;3.90;0.93;;;;;;;20.16;66.30;101316.13;4935138;29;20063;-74
2022/06/11 09:53:22;;;;;;;3.53;1.17;;;;;;;20.22;64.33;101320.13;4935011;29;20066;-74
2022/06/11 09:56:40;;;;;;;8.00;1.75;;;;;;;20.24;65.14;101317.38;4939089;29;20047;-74
2022/06/11 09:59:47;;;;;;;4.28;0.90;;;;;;;20.31;65.02;101318.53;4934345;29;20062;-74
2022/06/11 10:06:34;;;;;;;6.55;1.10;;;;;;;20.39;62.17;101313.47;4938146;29;20105;-74
2022/06/11 10:09:45;;;;;;;3.40;1.15;;;;;;;20.56;60.54;101312.97;4590561;29;10001196;-74
2022/06/11 10:12:57;;;;;;;4.68;1.10;;;;;;;20.56;61.47;101307.66;4934394;29;20138;-74
2022/06/11 10:16:12;;;;;;;3.97;1.13;;;;;;;20.64;61.50;101309.66;4953339;29;20049;-74
2022/06/11 10:19:34;;;;;;;5.97;1.20;;;;;;;20.70;60.42;101303.00;4953663;29;20046;-74
2022/06/11 10:22:55;;;;;;;4.57;1.83;;;;;;;20.71;60.49;101297.56;4953012;29;20065;-74
2022/06/11 10:25:58;;;;;;;5.80;0.95;;;;;;;20.92;59.82;101297.59;4953280;29;20054;-66
2022/06/11 10:29:18;;;;;;;4.05;1.20;;;;;;;20.97;60.88;101294.56;4953517;29;20066;-65
2022/06/11 10:32:43;;;;;;;4.97;1.05;;;;;;;20.96;59.22;101293.69;4953344;28;20456;-66
2022/06/11 10:36:02;;;;;;;4.35;1.30;;;;;;;21.50;58.77;101286.50;4953277;29;20133;-67
2022/06/11 10:39:24;;;;;;;6.85;1.00;;;;;;;21.56;57.54;101292.13;4962444;28;20139;-68
2022/06/11 10:42:34;;;;;;;5.45;1.20;;;;;;;21.74;56.08;101283.53;4972676;28;20053;-67
2022/06/11 10:45:37;;;;;;;5.28;1.30;;;;;;;21.75;55.48;101285.22;4972673;28;20092;-68
2022/06/11 10:48:41;;;;;;;2.67;0.90;;;;;;;21.66;55.41;101280.69;4972490;28;20052;-67
2022/06/11 10:52:04;;;;;;;3.95;1.30;;;;;;;22.09;54.43;101266.28;4952860;29;20046;-67
2022/06/11 10:55:16;;;;;;;5.28;1.10;;;;;;;22.09;54.60;101274.25;4952334;29;20050;-67
2022/06/11 10:58:30;;;;;;;3.70;0.80;;;;;;;22.49;53.55;101259.06;4952989;29;20244;-67
2022/06/11 11:01:40;;;;;;;6.25;1.20;;;;;;;22.84;51.29;101270.97;4953191;29;20514;-68
2022/06/11 11:05:06;;;;;;;3.97;1.30;;;;;;;22.68;52.11;101262.69;4953140;29;20058;-67
2022/06/11 11:08:12;;;;;;;6.07;0.93;;;;;;;22.52;52.98;101258.75;4955631;28;20404;-67
2022/06/11 11:11:15;;;;;;;5.72;1.27;;;;;;;22.52;53.43;101248.09;4956735;29;20102;-67
2022/06/11 11:14:42;;;;;;;5.20;1.08;;;;;;;22.61;53.12;101253.59;4956466;29;20070;-67
2022/06/11 11:17:49;;;;;;;4.13;1.15;;;;;;;22.50;53.51;101249.25;4955611;28;20050;-67
2022/06/11 11:20:56;;;;;;;7.28;1.02;;;;;;;22.57;52.26;101244.19;4974170;28;20062;-67
2022/06/11 11:24:10;;;;;;;6.00;1.48;;;;;;;22.66;53.86;101238.84;4976093;28;20046;-67
2022/06/11 11:27:21;;;;;;;4.00;1.23;;;;;;;22.77;53.27;101242.34;4976088;28;20085;-67
2022/06/11 11:30:35;;;;;;;4.90;1.27;;;;;;;23.01;50.89;101239.28;4976018;28;20134;-67
2022/06/11 11:33:45;;;;;;;3.15;0.90;;;;;;;22.91;50.06;101242.75;4975832;28;20058;-66
2022/06/11 11:36:48;;;;;;;4.53;1.10;;;;;;;22.81;50.52;101241.91;4975909;28;20552;-79
2022/06/11 11:39:59;;;;;;;5.60;1.08;;;;;;;23.03;49.96;101240.78;4975748;28;20053;-79
2022/06/11 11:43:08;;;;;;;6.20;1.17;;;;;;;23.37;50.88;101237.63;4975640;28;20053;-78
2022/06/11 11:46:18;;;;;;;6.32;1.50;;;;;;;23.40;50.01;101240.00;4975676;28;20101;-78
2022/06/11 11:49:29;;;;;;;3.03;0.90;;;;;;;23.36;49.97;101234.09;4974580;28;20169;-78
2022/06/11 11:52:40;;;;;;;5.88;1.13;;;;;;;23.22;50.39;101234.56;4975541;28;20045;-77
2022/06/11 11:55:54;;;;;;;5.80;1.05;;;;;;;23.21;51.11;101232.88;4975365;28;20049;-78
2022/06/11 11:59:14;;;;;;;6.43;1.00;;;;;;;23.16;50.97;101224.47;4975531;28;20097;-77
2022/06/11 12:02:59;;;;;;;5.03;1.33;;;;;;;23.19;50.87;101222.34;4975105;28;20050;-77
2022/06/11 12:06:04;;;;;;;5.68;1.38;;;;;;;23.95;50.21;101220.50;4963992;28;20097;-78
2022/06/11 12:09:21;;;;;;;3.70;1.10;;;;;;;23.84;50.19;101219.72;4985822;28;20101;-79
2022/06/11 12:12:31;;;;;;;3.88;1.08;;;;;;;23.56;51.19;101218.00;4975500;28;20472;-81
2022/06/11 12:15:34;;;;;;;3.15;0.98;;;;;;;23.55;49.54;101214.50;4975277;28;20105;-77
2022/06/11 12:18:46;;;;;;;2.83;0.70;;;;;;;23.50;50.29;101213.25;4974774;28;20520;-77
2022/06/11 12:21:59;;;;;;;5.03;1.00;;;;;;;23.77;49.89;101209.75;4985578;28;20070;-78
2022/06/11 12:25:04;;;;;;;5.25;1.48;;;;;;;24.11;48.96;101199.28;4974960;28;20093;-67
2022/06/11 12:28:13;;;;;;;3.97;1.48;;;;;;;24.28;47.77;101194.94;4975117;28;20488;-67
2022/06/11 12:31:17;;;;;;;3.70;0.98;;;;;;;24.14;48.52;101196.31;4975035;28;20049;-68
2022/06/11 12:34:25;;;;;;;4.18;1.38;;;;;;;23.92;50.45;101188.75;4974821;28;20041;-68
2022/06/11 12:37:43;;;;;;;4.18;1.30;;;;;;;24.12;50.03;101184.94;4955296;29;20058;-69
2022/06/11 12:40:53;;;;;;;3.38;0.73;;;;;;;24.21;48.97;101183.19;4954483;29;20054;-67
2022/06/11 12:44:19;;;;;;;3.78;1.10;;;;;;;23.94;49.79;101178.75;4955350;29;20054;-68
2022/06/11 12:48:00;;;;;;;4.05;0.80;;;;;;;24.14;49.88;101173.09;4955218;29;20042;-67
2022/06/11 12:51:10;;;;;;;6.75;1.52;;;;;;;24.66;48.69;101167.03;4954210;29;20050;-66
2022/06/11 12:54:23;;;;;;;5.15;1.27;;;;;;;24.90;48.23;101171.72;4955313;29;20512;-66
2022/06/11 12:57:27;;;;;;;6.28;1.10;;;;;;;25.13;47.66;101169.38;4954831;29;20114;-66
2022/06/11 13:00:56;;;;;;;5.70;1.30;;;;;;;25.57;46.34;101166.53;4942988;29;20058;-67
2022/06/11 13:04:14;;;;;;;4.20;0.88;;;;;;;25.11;44.64;101170.50;4954211;29;20054;-66
2022/06/11 13:07:30;;;;;;;3.42;1.00;;;;;;;24.94;45.58;101177.59;4972357;28;20049;-66
2022/06/11 13:10:51;;;;;;;5.78;1.00;;;;;;;25.41;45.74;101163.81;4974265;28;20078;-65
2022/06/11 13:14:16;;;;;;;3.75;1.00;;;;;;;25.79;43.56;101165.09;4974109;28;20082;-65
2022/06/11 13:17:45;;;;;;;3.58;0.98;;;;;;;25.89;43.73;101163.13;4973402;28;20078;-66
2022/06/11 13:20:55;;;;;;;3.55;1.17;;;;;;;26.28;40.43;101151.78;4973807;28;20096;-67
2022/06/11 13:24:08;;;;;;;3.60;0.90;;;;;;;26.40;39.63;101150.44;4973977;28;20052;-77
2022/06/11 13:27:23;;;;;;;5.05;0.82;;;;;;;26.64;37.47;101157.69;4973463;28;20114;-76
2022/06/11 13:30:49;;;;;;;5.00;1.27;;;;;;;27.23;36.39;101151.16;4973819;28;20058;-72
2022/06/11 13:33:59;;;;;;;4.97;1.45;;;;;;;27.52;35.92;101148.66;4973613;28;20093;-75
2022/06/11 13:37:44;;;;;;;4.32;0.93;;;;;;;27.02;36.44;101152.53;4973753;28;20516;-78
2022/06/11 13:41:08;;;;;;;5.93;0.60;;;;;;;27.51;35.16;101141.63;4954381;29;20110;-79
2022/06/11 13:44:24;;;;;;;3.80;0.80;;;;;;;27.76;34.81;101134.28;4954613;29;20109;-78
2022/06/11 13:47:47;;;;;;;4.97;0.98;;;;;;;28.13;34.21;101131.84;4953905;29;20069;-79
2022/06/11 13:51:02;;;;;;;4.25;0.70;;;;;;;28.43;33.53;101130.94;4964639;28;20054;-80
2022/06/11 13:57:46;;;;;;;5.20;1.08;;;;;;;28.57;32.58;101131.16;4954325;29;20054;-80
2022/06/11 14:01:11;;;;;;;4.50;1.08;;;;;;;29.01;31.97;101122.28;4954018;29;20085;-79
2022/06/11 14:04:29;;;;;;;3.80;0.75;;;;;;;29.17;32.44;101122.09;4954243;29;20082;-80
2022/06/11 14:07:35;;;;;;;2.35;0.70;;;;;;;28.38;33.17;101125.22;4954062;29;20058;-79
2022/06/11 14:10:44;;;;;;;3.88;1.42;;;;;;;28.48;32.24;101127.69;4954081;29;20101;-79
2022/06/11 14:13:55;;;;;;;2.55;0.75;;;;;;;26.80;35.44;101121.94;4954006;29;20122;-79
2022/06/11 14:16:58;;;;;;;3.70;0.90;;;;;;;26.67;35.89;101117.09;4954139;29;20050;-81
2022/06/11 14:20:21;;;;;;;3.45;1.00;;;;;;;29.85;31.00;101104.63;4953973;29;20630;-80
2022/06/11 14:23:24;;;;;;;4.22;1.08;;;;;;;30.22;30.21;101105.41;4953884;29;20050;-81
2022/06/11 14:26:48;;;;;;;3.53;1.02;;;;;;;31.04;29.04;101104.69;4954177;29;20416;-80
2022/06/11 14:30:18;;;;;;;2.40;0.80;;;;;;;27.90;32.78;101102.28;4953849;29;20050;-81
2022/06/11 14:33:37;;;;;;;3.45;0.93;;;;;;;30.69;30.40;101100.31;4953592;28;20125;-84
2022/06/11 14:36:41;;;;;;;3.40;1.13;;;;;;;31.34;28.40;101098.22;4953728;29;20047;-81
2022/06/11 14:39:46;;;;;;;5.25;1.08;;;;;;;31.84;28.00;101096.84;4967842;28;20419;-82
2022/06/11 14:43:04;;;;;;;3.45;1.17;;;;;;;30.44;30.01;101089.16;4972865;28;20181;-71
2022/06/11 14:46:28;;;;;;;4.97;1.20;;;;;;;29.72;32.60;101088.34;4976909;28;20074;-68
2022/06/11 14:49:38;;;;;;;4.53;0.95;;;;;;;28.94;31.57;101095.22;4976917;28;20065;-80
2022/06/11 14:52:47;;;;;;;4.35;1.08;;;;;;;29.98;30.50;101084.22;4976731;28;20140;-81